sensor_id;sensor_type;location;lat;lon;timestamp;P1;durP1;ratioP1;P2;durP2;ratioP2
62543;SDS011;48597;49.030;1.822;2022-07-21T00:00:39;2.80;;;2.03;;
62543;SDS011;48597;49.030;1.822;2022-07-21T00:03:04;2.05;;;1.90;;
62543;SDS011;48597;49.030;1.822;2022-07-21T00:05:29;2.17;;;1.63;;
62543;SDS011;48597;49.030;1.822;2022-07-21T00:07:55;2.08;;;1.83;;
62543;SDS011;48597;49.030;1.822;2022-07-21T00:10:23;3.72;;;1.90;;
62543;SDS011;48597;49.030;1.822;2022-07-21T00:12:49;2.50;;;2.20;;
62543;SDS011;48597;49.030;1.822;2022-07-21T00:15:16;3.20;;;1.88;;
62543;SDS011;48597;49.030;1.822;2022-07-21T00:17:43;2.28;;;1.65;;
62543;SDS011;48597;49.030;1.822;2022-07-21T00:20:09;3.50;;;1.90;;
62543;SDS011;48597;49.030;1.822;2022-07-21T00:22:35;2.08;;;1.98;;
62543;SDS011;48597;49.030;1.822;2022-07-21T00:25:01;1.90;;;1.80;;
62543;SDS011;48597;49.030;1.822;2022-07-21T00:27:28;1.70;;;1.60;;
62543;SDS011;48597;49.030;1.822;2022-07-21T00:29:53;2.47;;;1.90;;
62543;SDS011;48597;49.030;1.822;2022-07-21T00:32:19;3.05;;;1.83;;
62543;SDS011;48597;49.030;1.822;2022-07-21T00:34:44;2.53;;;1.90;;
62543;SDS011;48597;49.030;1.822;2022-07-21T00:37:10;2.72;;;1.90;;
62543;SDS011;48597;49.030;1.822;2022-07-21T00:39:36;2.53;;;1.70;;
62543;SDS011;48597;49.030;1.822;2022-07-21T00:42:01;1.90;;;1.50;;
62543;SDS011;48597;49.030;1.822;2022-07-21T00:44:28;2.33;;;1.73;;
62543;SDS011;48597;49.030;1.822;2022-07-21T00:46:54;2.15;;;1.90;;
62543;SDS011;48597;49.030;1.822;2022-07-21T00:49:19;2.42;;;1.85;;
62543;SDS011;48597;49.030;1.822;2022-07-21T00:51:45;2.85;;;1.90;;
62543;SDS011;48597;49.030;1.822;2022-07-21T00:54:12;2.53;;;2.10;;
62543;SDS011;48597;49.030;1.822;2022-07-21T00:56:39;2.28;;;1.80;;
62543;SDS011;48597;49.030;1.822;2022-07-21T00:59:04;3.55;;;1.80;;
62543;SDS011;48597;49.030;1.822;2022-07-21T01:01:30;2.17;;;1.98;;
62543;SDS011;48597;49.030;1.822;2022-07-21T01:03:55;2.67;;;1.92;;
62543;SDS011;48597;49.030;1.822;2022-07-21T01:06:21;1.95;;;1.77;;
62543;SDS011;48597;49.030;1.822;2022-07-21T01:08:49;1.95;;;1.85;;
62543;SDS011;48597;49.030;1.822;2022-07-21T01:11:15;2.20;;;1.90;;
62543;SDS011;48597;49.030;1.822;2022-07-21T01:13:41;2.70;;;1.80;;
62543;SDS011;48597;49.030;1.822;2022-07-21T01:16:07;2.38;;;1.92;;
62543;SDS011;48597;49.030;1.822;2022-07-21T01:18:33;2.08;;;1.58;;
62543;SDS011;48597;49.030;1.822;2022-07-21T01:20:59;2.92;;;1.88;;
62543;SDS011;48597;49.030;1.822;2022-07-21T01:23:31;2.28;;;1.92;;
62543;SDS011;48597;49.030;1.822;2022-07-21T01:25:57;2.95;;;1.98;;
62543;SDS011;48597;49.030;1.822;2022-07-21T01:28:22;3.28;;;2.00;;
62543;SDS011;48597;49.030;1.822;2022-07-21T01:30:48;2.80;;;1.80;;
62543;SDS011;48597;49.030;1.822;2022-07-21T01:33:13;2.67;;;1.75;;
62543;SDS011;48597;49.030;1.822;2022-07-21T01:35:38;2.35;;;1.92;;
62543;SDS011;48597;49.030;1.822;2022-07-21T01:38:04;2.22;;;2.00;;
62543;SDS011;48597;49.030;1.822;2022-07-21T01:40:29;2.97;;;1.90;;
62543;SDS011;48597;49.030;1.822;2022-07-21T01:43:13;2.90;;;1.80;;
62543;SDS011;48597;49.030;1.822;2022-07-21T01:45:39;3.83;;;1.85;;
62543;SDS011;48597;49.030;1.822;2022-07-21T01:48:05;1.98;;;1.75;;
62543;SDS011;48597;49.030;1.822;2022-07-21T01:50:31;4.47;;;1.90;;
62543;SDS011;48597;49.030;1.822;2022-07-21T01:52:56;3.97;;;1.90;;
62543;SDS011;48597;49.030;1.822;2022-07-21T01:55:24;3.58;;;1.90;;
62543;SDS011;48597;49.030;1.822;2022-07-21T01:57:50;2.92;;;2.00;;
62543;SDS011;48597;49.030;1.822;2022-07-21T02:00:16;3.17;;;1.90;;
62543;SDS011;48597;49.030;1.822;2022-07-21T02:02:42;3.20;;;2.28;;
62543;SDS011;48597;49.030;1.822;2022-07-21T02:05:08;3.10;;;2.05;;
62543;SDS011;48597;49.030;1.822;2022-07-21T02:07:33;4.22;;;2.20;;
62543;SDS011;48597;49.030;1.822;2022-07-21T02:09:59;2.53;;;2.00;;
62543;SDS011;48597;49.030;1.822;2022-07-21T02:12:24;3.10;;;2.20;;
62543;SDS011;48597;49.030;1.822;2022-07-21T02:14:50;3.83;;;1.92;;
62543;SDS011;48597;49.030;1.822;2022-07-21T02:17:15;3.25;;;2.10;;
62543;SDS011;48597;49.030;1.822;2022-07-21T02:19:40;2.50;;;2.00;;
62543;SDS011;48597;49.030;1.822;2022-07-21T02:22:06;2.10;;;1.90;;
62543;SDS011;48597;49.030;1.822;2022-07-21T02:24:31;4.00;;;2.20;;
62543;SDS011;48597;49.030;1.822;2022-07-21T02:26:56;7.40;;;2.13;;
62543;SDS011;48597;49.030;1.822;2022-07-21T02:29:22;3.25;;;2.30;;
62543;SDS011;48597;49.030;1.822;2022-07-21T02:31:47;2.85;;;2.22;;
62543;SDS011;48597;49.030;1.822;2022-07-21T02:34:13;3.72;;;2.80;;
62543;SDS011;48597;49.030;1.822;2022-07-21T02:36:38;3.65;;;2.95;;
62543;SDS011;48597;49.030;1.822;2022-07-21T02:39:04;6.88;;;3.42;;
62543;SDS011;48597;49.030;1.822;2022-07-21T02:41:30;5.45;;;3.53;;
62543;SDS011;48597;49.030;1.822;2022-07-21T02:43:56;5.72;;;4.00;;
62543;SDS011;48597;49.030;1.822;2022-07-21T02:46:21;6.50;;;3.58;;
62543;SDS011;48597;49.030;1.822;2022-07-21T02:48:46;4.50;;;3.88;;
62543;SDS011;48597;49.030;1.822;2022-07-21T02:51:12;6.30;;;4.40;;
62543;SDS011;48597;49.030;1.822;2022-07-21T02:53:37;7.97;;;4.60;;
62543;SDS011;48597;49.030;1.822;2022-07-21T02:56:03;5.20;;;4.70;;
62543;SDS011;48597;49.030;1.822;2022-07-21T02:58:28;6.78;;;5.10;;
62543;SDS011;48597;49.030;1.822;2022-07-21T03:00:56;6.75;;;5.40;;
62543;SDS011;48597;49.030;1.822;2022-07-21T03:03:24;6.63;;;5.47;;
62543;SDS011;48597;49.030;1.822;2022-07-21T03:05:52;7.40;;;5.60;;
62543;SDS011;48597;49.030;1.822;2022-07-21T03:08:17;7.75;;;5.90;;
62543;SDS011;48597;49.030;1.822;2022-07-21T03:10:44;7.82;;;5.82;;
62543;SDS011;48597;49.030;1.822;2022-07-21T03:13:10;8.05;;;5.65;;
62543;SDS011;48597;49.030;1.822;2022-07-21T03:15:36;10.15;;;6.68;;
62543;SDS011;48597;49.030;1.822;2022-07-21T03:18:02;7.15;;;5.75;;
62543;SDS011;48597;49.030;1.822;2022-07-21T03:20:29;8.70;;;6.43;;
62543;SDS011;48597;49.030;1.822;2022-07-21T03:22:56;7.45;;;5.60;;
62543;SDS011;48597;49.030;1.822;2022-07-21T03:25:21;8.02;;;5.93;;
62543;SDS011;48597;49.030;1.822;2022-07-21T03:27:47;8.10;;;6.13;;
62543;SDS011;48597;49.030;1.822;2022-07-21T03:30:13;9.20;;;6.35;;
62543;SDS011;48597;49.030;1.822;2022-07-21T03:32:39;9.63;;;6.40;;
62543;SDS011;48597;49.030;1.822;2022-07-21T03:35:05;8.35;;;6.32;;
62543;SDS011;48597;49.030;1.822;2022-07-21T03:37:32;7.75;;;6.35;;
62543;SDS011;48597;49.030;1.822;2022-07-21T03:39:57;9.38;;;6.40;;
62543;SDS011;48597;49.030;1.822;2022-07-21T03:42:22;8.07;;;6.70;;
62543;SDS011;48597;49.030;1.822;2022-07-21T03:44:48;7.15;;;6.22;;
62543;SDS011;48597;49.030;1.822;2022-07-21T03:47:13;9.25;;;6.25;;
62543;SDS011;48597;49.030;1.822;2022-07-21T03:49:39;9.85;;;6.90;;
62543;SDS011;48597;49.030;1.822;2022-07-21T03:52:04;10.15;;;6.97;;
62543;SDS011;48597;49.030;1.822;2022-07-21T03:54:30;7.50;;;6.68;;
62543;SDS011;48597;49.030;1.822;2022-07-21T03:56:55;9.00;;;6.70;;
62543;SDS011;48597;49.030;1.822;2022-07-21T03:59:20;7.45;;;6.57;;
62543;SDS011;48597;49.030;1.822;2022-07-21T04:01:46;8.13;;;6.60;;
62543;SDS011;48597;49.030;1.822;2022-07-21T04:04:11;8.35;;;6.70;;
62543;SDS011;48597;49.030;1.822;2022-07-21T04:06:36;10.48;;;7.45;;
62543;SDS011;48597;49.030;1.822;2022-07-21T04:09:02;8.70;;;6.63;;
62543;SDS011;48597;49.030;1.822;2022-07-21T04:11:28;9.00;;;6.78;;
62543;SDS011;48597;49.030;1.822;2022-07-21T04:13:55;9.93;;;6.22;;
62543;SDS011;48597;49.030;1.822;2022-07-21T04:16:20;9.15;;;6.65;;
62543;SDS011;48597;49.030;1.822;2022-07-21T04:18:46;7.65;;;6.78;;
62543;SDS011;48597;49.030;1.822;2022-07-21T04:21:11;8.05;;;6.22;;
62543;SDS011;48597;49.030;1.822;2022-07-21T04:23:36;8.77;;;7.05;;
62543;SDS011;48597;49.030;1.822;2022-07-21T04:26:02;7.93;;;6.80;;
62543;SDS011;48597;49.030;1.822;2022-07-21T04:28:27;8.30;;;6.70;;
62543;SDS011;48597;49.030;1.822;2022-07-21T04:30:52;8.30;;;6.97;;
62543;SDS011;48597;49.030;1.822;2022-07-21T04:33:18;8.18;;;6.70;;
62543;SDS011;48597;49.030;1.822;2022-07-21T04:35:43;7.57;;;6.72;;
62543;SDS011;48597;49.030;1.822;2022-07-21T04:38:09;9.75;;;7.10;;
62543;SDS011;48597;49.030;1.822;2022-07-21T04:40:35;9.55;;;7.05;;
62543;SDS011;48597;49.030;1.822;2022-07-21T04:43:00;9.68;;;6.80;;
62543;SDS011;48597;49.030;1.822;2022-07-21T04:45:26;8.30;;;6.75;;
62543;SDS011;48597;49.030;1.822;2022-07-21T04:47:52;9.65;;;7.30;;
62543;SDS011;48597;49.030;1.822;2022-07-21T04:50:20;8.77;;;6.72;;
62543;SDS011;48597;49.030;1.822;2022-07-21T04:52:47;8.55;;;6.70;;
62543;SDS011;48597;49.030;1.822;2022-07-21T04:55:13;9.90;;;7.50;;
62543;SDS011;48597;49.030;1.822;2022-07-21T04:57:40;8.98;;;6.78;;
62543;SDS011;48597;49.030;1.822;2022-07-21T05:00:07;10.93;;;7.28;;
62543;SDS011;48597;49.030;1.822;2022-07-21T05:02:34;8.75;;;7.15;;
62543;SDS011;48597;49.030;1.822;2022-07-21T05:05:00;11.18;;;7.32;;
62543;SDS011;48597;49.030;1.822;2022-07-21T05:07:26;9.75;;;7.35;;
62543;SDS011;48597;49.030;1.822;2022-07-21T05:09:51;10.35;;;6.85;;
62543;SDS011;48597;49.030;1.822;2022-07-21T05:12:17;8.20;;;7.32;;
62543;SDS011;48597;49.030;1.822;2022-07-21T05:14:42;8.80;;;6.72;;
62543;SDS011;48597;49.030;1.822;2022-07-21T05:17:07;8.98;;;7.20;;
62543;SDS011;48597;49.030;1.822;2022-07-21T05:19:33;9.32;;;7.38;;
62543;SDS011;48597;49.030;1.822;2022-07-21T05:21:58;9.05;;;7.60;;
62543;SDS011;48597;49.030;1.822;2022-07-21T05:24:23;10.07;;;7.47;;
62543;SDS011;48597;49.030;1.822;2022-07-21T05:26:49;9.98;;;7.85;;
62543;SDS011;48597;49.030;1.822;2022-07-21T05:29:14;10.93;;;7.45;;
62543;SDS011;48597;49.030;1.822;2022-07-21T05:31:39;8.65;;;7.30;;
62543;SDS011;48597;49.030;1.822;2022-07-21T05:34:05;8.60;;;7.20;;
62543;SDS011;48597;49.030;1.822;2022-07-21T05:36:30;10.32;;;7.68;;
62543;SDS011;48597;49.030;1.822;2022-07-21T05:38:55;10.13;;;7.60;;
62543;SDS011;48597;49.030;1.822;2022-07-21T05:41:21;8.95;;;7.10;;
62543;SDS011;48597;49.030;1.822;2022-07-21T05:43:46;7.15;;;6.43;;
62543;SDS011;48597;49.030;1.822;2022-07-21T05:46:12;9.55;;;7.47;;
62543;SDS011;48597;49.030;1.822;2022-07-21T05:48:37;11.75;;;7.57;;
62543;SDS011;48597;49.030;1.822;2022-07-21T05:51:03;10.20;;;7.43;;
62543;SDS011;48597;49.030;1.822;2022-07-21T05:53:28;10.32;;;7.28;;
62543;SDS011;48597;49.030;1.822;2022-07-21T05:55:53;9.88;;;7.28;;
62543;SDS011;48597;49.030;1.822;2022-07-21T05:58:19;9.88;;;6.82;;
62543;SDS011;48597;49.030;1.822;2022-07-21T06:00:48;9.45;;;7.30;;
62543;SDS011;48597;49.030;1.822;2022-07-21T06:03:33;9.50;;;7.25;;
62543;SDS011;48597;49.030;1.822;2022-07-21T06:06:02;8.57;;;6.90;;
62543;SDS011;48597;49.030;1.822;2022-07-21T06:08:28;9.55;;;6.93;;
62543;SDS011;48597;49.030;1.822;2022-07-21T06:10:53;8.80;;;6.95;;
62543;SDS011;48597;49.030;1.822;2022-07-21T06:13:19;9.35;;;7.45;;
62543;SDS011;48597;49.030;1.822;2022-07-21T06:15:44;9.55;;;7.15;;
62543;SDS011;48597;49.030;1.822;2022-07-21T06:18:09;8.85;;;6.95;;
62543;SDS011;48597;49.030;1.822;2022-07-21T06:20:35;9.98;;;7.40;;
62543;SDS011;48597;49.030;1.822;2022-07-21T06:23:00;10.35;;;6.90;;
62543;SDS011;48597;49.030;1.822;2022-07-21T06:25:26;9.68;;;6.65;;
62543;SDS011;48597;49.030;1.822;2022-07-21T06:27:51;12.48;;;7.13;;
62543;SDS011;48597;49.030;1.822;2022-07-21T06:30:17;9.38;;;6.50;;
62543;SDS011;48597;49.030;1.822;2022-07-21T06:32:42;8.75;;;6.45;;
62543;SDS011;48597;49.030;1.822;2022-07-21T06:35:08;7.47;;;6.40;;
62543;SDS011;48597;49.030;1.822;2022-07-21T06:37:33;10.45;;;6.90;;
62543;SDS011;48597;49.030;1.822;2022-07-21T06:39:59;12.70;;;7.18;;
62543;SDS011;48597;49.030;1.822;2022-07-21T06:42:24;10.63;;;7.05;;
62543;SDS011;48597;49.030;1.822;2022-07-21T06:44:49;11.15;;;7.43;;
62543;SDS011;48597;49.030;1.822;2022-07-21T06:47:15;12.60;;;6.68;;
62543;SDS011;48597;49.030;1.822;2022-07-21T06:49:40;9.88;;;6.82;;
62543;SDS011;48597;49.030;1.822;2022-07-21T06:52:05;11.13;;;7.13;;
62543;SDS011;48597;49.030;1.822;2022-07-21T06:54:31;13.10;;;6.57;;
62543;SDS011;48597;49.030;1.822;2022-07-21T06:56:56;11.07;;;7.05;;
62543;SDS011;48597;49.030;1.822;2022-07-21T06:59:21;13.88;;;7.40;;
62543;SDS011;48597;49.030;1.822;2022-07-21T07:01:47;13.60;;;7.05;;
62543;SDS011;48597;49.030;1.822;2022-07-21T07:04:12;13.27;;;7.13;;
62543;SDS011;48597;49.030;1.822;2022-07-21T07:06:37;12.20;;;6.97;;
62543;SDS011;48597;49.030;1.822;2022-07-21T07:09:03;10.73;;;7.18;;
62543;SDS011;48597;49.030;1.822;2022-07-21T07:11:28;11.38;;;6.22;;
62543;SDS011;48597;49.030;1.822;2022-07-21T07:13:53;11.85;;;7.25;;
62543;SDS011;48597;49.030;1.822;2022-07-21T07:16:19;14.07;;;7.32;;
62543;SDS011;48597;49.030;1.822;2022-07-21T07:18:44;8.25;;;7.07;;
62543;SDS011;48597;49.030;1.822;2022-07-21T07:21:09;12.48;;;7.30;;
62543;SDS011;48597;49.030;1.822;2022-07-21T07:23:35;11.15;;;6.90;;
62543;SDS011;48597;49.030;1.822;2022-07-21T07:26:00;11.38;;;7.18;;
62543;SDS011;48597;49.030;1.822;2022-07-21T07:28:26;10.20;;;7.03;;
62543;SDS011;48597;49.030;1.822;2022-07-21T07:30:51;10.38;;;6.35;;
62543;SDS011;48597;49.030;1.822;2022-07-21T07:33:16;9.20;;;6.90;;
62543;SDS011;48597;49.030;1.822;2022-07-21T07:35:42;12.15;;;6.97;;
62543;SDS011;48597;49.030;1.822;2022-07-21T07:38:09;10.07;;;6.72;;
62543;SDS011;48597;49.030;1.822;2022-07-21T07:40:38;9.85;;;6.70;;
62543;SDS011;48597;49.030;1.822;2022-07-21T07:43:03;22.85;;;7.63;;
62543;SDS011;48597;49.030;1.822;2022-07-21T07:45:30;12.82;;;7.40;;
62543;SDS011;48597;49.030;1.822;2022-07-21T07:47:55;13.23;;;7.15;;
62543;SDS011;48597;49.030;1.822;2022-07-21T07:50:21;11.18;;;6.93;;
62543;SDS011;48597;49.030;1.822;2022-07-21T07:52:46;10.18;;;6.75;;
62543;SDS011;48597;49.030;1.822;2022-07-21T07:55:12;11.38;;;7.40;;
62543;SDS011;48597;49.030;1.822;2022-07-21T07:57:39;10.88;;;7.07;;
62543;SDS011;48597;49.030;1.822;2022-07-21T08:00:10;10.57;;;7.10;;
62543;SDS011;48597;49.030;1.822;2022-07-21T08:02:39;11.98;;;7.25;;
62543;SDS011;48597;49.030;1.822;2022-07-21T08:05:05;11.68;;;7.50;;
62543;SDS011;48597;49.030;1.822;2022-07-21T08:07:33;10.52;;;7.15;;
62543;SDS011;48597;49.030;1.822;2022-07-21T08:09:59;12.52;;;7.22;;
62543;SDS011;48597;49.030;1.822;2022-07-21T08:12:24;12.93;;;7.97;;
62543;SDS011;48597;49.030;1.822;2022-07-21T08:14:50;11.20;;;7.50;;
62543;SDS011;48597;49.030;1.822;2022-07-21T08:17:16;13.00;;;7.60;;
62543;SDS011;48597;49.030;1.822;2022-07-21T08:19:41;12.32;;;7.32;;
62543;SDS011;48597;49.030;1.822;2022-07-21T08:22:08;11.07;;;7.93;;
62543;SDS011;48597;49.030;1.822;2022-07-21T08:24:33;12.38;;;7.80;;
62543;SDS011;48597;49.030;1.822;2022-07-21T08:26:58;12.48;;;7.80;;
62543;SDS011;48597;49.030;1.822;2022-07-21T08:29:24;10.57;;;7.05;;
62543;SDS011;48597;49.030;1.822;2022-07-21T08:31:49;11.05;;;7.18;;
62543;SDS011;48597;49.030;1.822;2022-07-21T08:34:15;11.50;;;7.38;;
62543;SDS011;48597;49.030;1.822;2022-07-21T08:36:40;15.18;;;7.82;;
62543;SDS011;48597;49.030;1.822;2022-07-21T08:39:05;12.45;;;6.88;;
62543;SDS011;48597;49.030;1.822;2022-07-21T08:41:31;9.95;;;6.97;;
62543;SDS011;48597;49.030;1.822;2022-07-21T08:43:57;12.98;;;7.60;;
62543;SDS011;48597;49.030;1.822;2022-07-21T08:46:22;12.48;;;7.00;;
62543;SDS011;48597;49.030;1.822;2022-07-21T08:48:49;11.43;;;7.38;;
62543;SDS011;48597;49.030;1.822;2022-07-21T08:51:15;12.70;;;7.68;;
62543;SDS011;48597;49.030;1.822;2022-07-21T08:53:47;9.20;;;7.13;;
62543;SDS011;48597;49.030;1.822;2022-07-21T08:56:13;10.98;;;7.22;;
62543;SDS011;48597;49.030;1.822;2022-07-21T08:58:39;8.30;;;6.35;;
62543;SDS011;48597;49.030;1.822;2022-07-21T09:01:05;11.40;;;7.18;;
62543;SDS011;48597;49.030;1.822;2022-07-21T09:03:30;10.88;;;7.07;;
62543;SDS011;48597;49.030;1.822;2022-07-21T09:06:18;9.93;;;6.47;;
62543;SDS011;48597;49.030;1.822;2022-07-21T09:13:37;10.80;;;6.68;;
62543;SDS011;48597;49.030;1.822;2022-07-21T09:16:03;9.07;;;6.40;;
62543;SDS011;48597;49.030;1.822;2022-07-21T09:18:28;7.20;;;6.03;;
62543;SDS011;48597;49.030;1.822;2022-07-21T09:20:55;10.43;;;6.43;;
62543;SDS011;48597;49.030;1.822;2022-07-21T09:23:21;11.43;;;6.30;;
62543;SDS011;48597;49.030;1.822;2022-07-21T09:25:49;9.75;;;6.03;;
62543;SDS011;48597;49.030;1.822;2022-07-21T09:28:20;12.07;;;7.00;;
62543;SDS011;48597;49.030;1.822;2022-07-21T09:33:23;12.35;;;6.78;;
62543;SDS011;48597;49.030;1.822;2022-07-21T09:35:53;9.52;;;6.60;;
62543;SDS011;48597;49.030;1.822;2022-07-21T09:38:25;10.93;;;6.60;;
62543;SDS011;48597;49.030;1.822;2022-07-21T09:40:51;12.10;;;6.75;;
62543;SDS011;48597;49.030;1.822;2022-07-21T09:43:34;8.52;;;6.45;;
62543;SDS011;48597;49.030;1.822;2022-07-21T09:46:08;11.07;;;6.50;;
62543;SDS011;48597;49.030;1.822;2022-07-21T09:48:37;9.65;;;6.40;;
62543;SDS011;48597;49.030;1.822;2022-07-21T09:51:24;10.30;;;6.43;;
62543;SDS011;48597;49.030;1.822;2022-07-21T09:53:58;11.52;;;6.43;;
62543;SDS011;48597;49.030;1.822;2022-07-21T09:56:34;8.85;;;6.57;;
62543;SDS011;48597;49.030;1.822;2022-07-21T09:59:02;12.70;;;7.05;;
62543;SDS011;48597;49.030;1.822;2022-07-21T10:01:29;8.57;;;6.10;;
62543;SDS011;48597;49.030;1.822;2022-07-21T10:03:55;9.07;;;6.53;;
62543;SDS011;48597;49.030;1.822;2022-07-21T10:06:23;9.50;;;6.00;;
62543;SDS011;48597;49.030;1.822;2022-07-21T10:08:51;11.60;;;6.40;;
62543;SDS011;48597;49.030;1.822;2022-07-21T10:11:17;11.25;;;6.47;;
62543;SDS011;48597;49.030;1.822;2022-07-21T10:13:43;10.18;;;6.07;;
62543;SDS011;48597;49.030;1.822;2022-07-21T10:16:09;9.32;;;5.88;;
62543;SDS011;48597;49.030;1.822;2022-07-21T10:18:37;7.70;;;5.70;;
62543;SDS011;48597;49.030;1.822;2022-07-21T10:24:26;8.88;;;6.15;;
62543;SDS011;48597;49.030;1.822;2022-07-21T10:27:04;10.50;;;6.60;;
62543;SDS011;48597;49.030;1.822;2022-07-21T10:29:50;8.93;;;6.28;;
62543;SDS011;48597;49.030;1.822;2022-07-21T10:32:21;9.00;;;6.63;;
62543;SDS011;48597;49.030;1.822;2022-07-21T10:34:49;10.98;;;6.45;;
62543;SDS011;48597;49.030;1.822;2022-07-21T10:40:06;9.48;;;6.18;;
62543;SDS011;48597;49.030;1.822;2022-07-21T10:45:35;9.32;;;6.30;;
62543;SDS011;48597;49.030;1.822;2022-07-21T10:48:03;9.93;;;6.25;;
62543;SDS011;48597;49.030;1.822;2022-07-21T10:50:34;9.52;;;6.22;;
62543;SDS011;48597;49.030;1.822;2022-07-21T10:53:04;9.63;;;6.40;;
62543;SDS011;48597;49.030;1.822;2022-07-21T10:55:36;8.32;;;6.18;;
62543;SDS011;48597;49.030;1.822;2022-07-21T11:01:02;9.18;;;5.78;;
62543;SDS011;48597;49.030;1.822;2022-07-21T11:06:39;8.23;;;6.22;;
62543;SDS011;48597;49.030;1.822;2022-07-21T11:09:09;9.18;;;6.75;;
62543;SDS011;48597;49.030;1.822;2022-07-21T11:14:34;7.40;;;6.40;;
62543;SDS011;48597;49.030;1.822;2022-07-21T11:17:24;7.28;;;5.72;;
62543;SDS011;48597;49.030;1.822;2022-07-21T11:19:53;8.30;;;6.10;;
62543;SDS011;48597;49.030;1.822;2022-07-21T11:22:19;8.43;;;5.88;;
62543;SDS011;48597;49.030;1.822;2022-07-21T11:24:47;7.63;;;6.28;;
62543;SDS011;48597;49.030;1.822;2022-07-21T11:27:15;6.95;;;5.95;;
62543;SDS011;48597;49.030;1.822;2022-07-21T11:29:43;8.82;;;6.45;;
62543;SDS011;48597;49.030;1.822;2022-07-21T11:32:10;10.20;;;6.90;;
62543;SDS011;48597;49.030;1.822;2022-07-21T11:34:40;7.45;;;6.22;;
62543;SDS011;48597;49.030;1.822;2022-07-21T11:37:13;7.53;;;6.10;;
62543;SDS011;48597;49.030;1.822;2022-07-21T11:39:43;8.75;;;6.43;;
62543;SDS011;48597;49.030;1.822;2022-07-21T11:42:10;8.00;;;6.40;;
62543;SDS011;48597;49.030;1.822;2022-07-21T11:44:38;10.55;;;6.60;;
62543;SDS011;48597;49.030;1.822;2022-07-21T11:47:05;9.35;;;7.30;;
62543;SDS011;48597;49.030;1.822;2022-07-21T11:49:32;7.63;;;6.78;;
62543;SDS011;48597;49.030;1.822;2022-07-21T11:51:59;8.25;;;6.47;;
62543;SDS011;48597;49.030;1.822;2022-07-21T11:54:37;7.63;;;6.85;;
62543;SDS011;48597;49.030;1.822;2022-07-21T11:57:10;9.13;;;6.78;;
62543;SDS011;48597;49.030;1.822;2022-07-21T11:59:37;8.57;;;6.95;;
62543;SDS011;48597;49.030;1.822;2022-07-21T12:02:06;7.53;;;6.80;;
62543;SDS011;48597;49.030;1.822;2022-07-21T12:04:42;8.40;;;7.18;;
62543;SDS011;48597;49.030;1.822;2022-07-21T12:09:44;8.93;;;6.90;;
62543;SDS011;48597;49.030;1.822;2022-07-21T12:12:11;10.43;;;6.88;;
62543;SDS011;48597;49.030;1.822;2022-07-21T12:14:47;7.55;;;6.78;;
62543;SDS011;48597;49.030;1.822;2022-07-21T12:17:14;7.40;;;6.70;;
62543;SDS011;48597;49.030;1.822;2022-07-21T12:19:57;7.10;;;6.45;;
62543;SDS011;48597;49.030;1.822;2022-07-21T12:22:40;7.00;;;6.30;;
62543;SDS011;48597;49.030;1.822;2022-07-21T12:25:10;8.98;;;7.03;;
62543;SDS011;48597;49.030;1.822;2022-07-21T12:27:37;8.20;;;7.40;;
62543;SDS011;48597;49.030;1.822;2022-07-21T12:30:05;9.70;;;8.07;;
62543;SDS011;48597;49.030;1.822;2022-07-21T12:32:43;10.52;;;7.78;;
62543;SDS011;48597;49.030;1.822;2022-07-21T12:35:17;9.48;;;6.80;;
62543;SDS011;48597;49.030;1.822;2022-07-21T12:40:27;8.68;;;6.95;;
62543;SDS011;48597;49.030;1.822;2022-07-21T12:43:04;8.13;;;7.00;;
62543;SDS011;48597;49.030;1.822;2022-07-21T12:45:32;7.95;;;6.80;;
62543;SDS011;48597;49.030;1.822;2022-07-21T12:48:29;8.15;;;7.20;;
62543;SDS011;48597;49.030;1.822;2022-07-21T12:51:01;8.30;;;7.28;;
62543;SDS011;48597;49.030;1.822;2022-07-21T12:53:27;8.65;;;7.03;;
62543;SDS011;48597;49.030;1.822;2022-07-21T12:55:53;7.93;;;6.60;;
62543;SDS011;48597;49.030;1.822;2022-07-21T12:58:18;7.10;;;6.40;;
62543;SDS011;48597;49.030;1.822;2022-07-21T13:00:44;8.00;;;7.20;;
62543;SDS011;48597;49.030;1.822;2022-07-21T13:03:09;7.65;;;6.45;;
62543;SDS011;48597;49.030;1.822;2022-07-21T13:05:35;6.70;;;6.10;;
62543;SDS011;48597;49.030;1.822;2022-07-21T13:08:00;7.28;;;6.45;;
62543;SDS011;48597;49.030;1.822;2022-07-21T13:10:26;9.48;;;7.45;;
62543;SDS011;48597;49.030;1.822;2022-07-21T13:12:51;8.18;;;6.32;;
62543;SDS011;48597;49.030;1.822;2022-07-21T13:15:17;7.18;;;6.47;;
62543;SDS011;48597;49.030;1.822;2022-07-21T13:17:42;8.13;;;7.18;;
62543;SDS011;48597;49.030;1.822;2022-07-21T13:20:08;8.65;;;7.07;;
62543;SDS011;48597;49.030;1.822;2022-07-21T13:22:34;7.57;;;6.60;;
62543;SDS011;48597;49.030;1.822;2022-07-21T13:24:59;7.03;;;6.32;;
62543;SDS011;48597;49.030;1.822;2022-07-21T13:27:25;7.10;;;6.40;;
62543;SDS011;48597;49.030;1.822;2022-07-21T13:29:50;7.60;;;6.43;;
62543;SDS011;48597;49.030;1.822;2022-07-21T13:32:15;8.43;;;6.95;;
62543;SDS011;48597;49.030;1.822;2022-07-21T13:34:41;9.05;;;7.13;;
62543;SDS011;48597;49.030;1.822;2022-07-21T13:37:06;8.32;;;7.30;;
62543;SDS011;48597;49.030;1.822;2022-07-21T13:39:36;7.43;;;6.45;;
62543;SDS011;48597;49.030;1.822;2022-07-21T13:42:05;8.50;;;6.80;;
62543;SDS011;48597;49.030;1.822;2022-07-21T13:44:32;7.28;;;6.57;;
62543;SDS011;48597;49.030;1.822;2022-07-21T13:47:01;7.38;;;6.40;;
62543;SDS011;48597;49.030;1.822;2022-07-21T13:49:27;7.53;;;6.75;;
62543;SDS011;48597;49.030;1.822;2022-07-21T13:51:52;9.52;;;6.80;;
62543;SDS011;48597;49.030;1.822;2022-07-21T13:54:17;8.32;;;7.50;;
62543;SDS011;48597;49.030;1.822;2022-07-21T13:56:43;8.93;;;7.60;;
62543;SDS011;48597;49.030;1.822;2022-07-21T13:59:09;8.60;;;7.70;;
62543;SDS011;48597;49.030;1.822;2022-07-21T14:01:34;8.13;;;7.30;;
62543;SDS011;48597;49.030;1.822;2022-07-21T14:04:00;8.20;;;7.40;;
62543;SDS011;48597;49.030;1.822;2022-07-21T14:06:25;8.40;;;7.18;;
62543;SDS011;48597;49.030;1.822;2022-07-21T14:08:50;9.63;;;7.60;;
62543;SDS011;48597;49.030;1.822;2022-07-21T14:11:16;8.07;;;7.13;;
62543;SDS011;48597;49.030;1.822;2022-07-21T14:13:41;7.70;;;6.82;;
62543;SDS011;48597;49.030;1.822;2022-07-21T14:16:07;7.90;;;7.07;;
62543;SDS011;48597;49.030;1.822;2022-07-21T14:18:33;8.90;;;7.60;;
62543;SDS011;48597;49.030;1.822;2022-07-21T14:20:58;7.63;;;6.82;;
62543;SDS011;48597;49.030;1.822;2022-07-21T14:23:23;8.30;;;7.43;;
62543;SDS011;48597;49.030;1.822;2022-07-21T14:25:49;9.65;;;7.35;;
62543;SDS011;48597;49.030;1.822;2022-07-21T14:28:16;8.52;;;7.10;;
62543;SDS011;48597;49.030;1.822;2022-07-21T14:30:42;8.75;;;7.45;;
62543;SDS011;48597;49.030;1.822;2022-07-21T14:33:07;9.88;;;7.78;;
62543;SDS011;48597;49.030;1.822;2022-07-21T14:35:33;10.60;;;7.72;;
62543;SDS011;48597;49.030;1.822;2022-07-21T14:37:58;9.57;;;7.90;;
62543;SDS011;48597;49.030;1.822;2022-07-21T14:40:24;8.13;;;7.32;;
62543;SDS011;48597;49.030;1.822;2022-07-21T14:42:50;9.93;;;8.30;;
62543;SDS011;48597;49.030;1.822;2022-07-21T14:45:17;7.78;;;6.97;;
62543;SDS011;48597;49.030;1.822;2022-07-21T14:47:43;8.20;;;7.40;;
62543;SDS011;48597;49.030;1.822;2022-07-21T14:50:11;9.15;;;7.30;;
62543;SDS011;48597;49.030;1.822;2022-07-21T14:52:37;8.90;;;7.40;;
62543;SDS011;48597;49.030;1.822;2022-07-21T14:55:03;9.30;;;7.90;;
62543;SDS011;48597;49.030;1.822;2022-07-21T14:57:29;9.18;;;7.28;;
62543;SDS011;48597;49.030;1.822;2022-07-21T14:59:56;7.30;;;6.60;;
62543;SDS011;48597;49.030;1.822;2022-07-21T15:02:22;8.43;;;6.55;;
62543;SDS011;48597;49.030;1.822;2022-07-21T15:04:48;7.38;;;6.18;;
62543;SDS011;48597;49.030;1.822;2022-07-21T15:07:13;8.65;;;6.53;;
62543;SDS011;48597;49.030;1.822;2022-07-21T15:09:38;8.25;;;7.30;;
62543;SDS011;48597;49.030;1.822;2022-07-21T15:12:04;7.07;;;6.38;;
62543;SDS011;48597;49.030;1.822;2022-07-21T15:14:29;7.72;;;6.20;;